Time;durP1;ratioP1;P1;durP2;ratioP2;P2;SDS_P1;SDS_P2;PMS_P1;PMS_P2;Temp;Humidity;BMP_temperature;BMP_pressure;BME280_temperature;BME280_humidity;BME280_pressure;Samples;Min_cycle;Max_cycle;Signal;HPM_P1;HPM_P2
2023/03/21 00:01:57;;;;;;;19.08;9.48;;;;;;;13.19;47.69;95031.16;4993400;28;20038;-75
2023/03/21 00:04:25;;;;;;;21.77;9.73;;;;;;;13.38;47.80;95066.50;4976049;28;20061;-75
2023/03/21 00:06:51;;;;;;;24.70;10.48;;;;;;;12.54;47.67;94944.13;4972620;28;20085;-75
2023/03/21 00:09:17;;;;;;;20.10;9.85;;;;;;;13.28;47.62;95053.34;4961130;28;20564;-75
2023/03/21 00:11:43;;;;;;;19.73;10.30;;;;;;;13.28;47.60;95056.81;4993217;28;20109;-76
2023/03/21 00:14:13;;;;;;;29.27;10.20;;;;;;;13.18;47.82;95043.69;4993827;28;20121;-76
2023/03/21 00:16:39;;;;;;;29.45;10.38;;;;;;;12.98;47.99;95020.03;4993521;28;20034;-75
2023/03/21 00:19:08;;;;;;;20.55;9.82;;;;;;;13.27;48.09;95089.09;4975797;28;20046;-75
2023/03/21 00:21:37;;;;;;;30.70;12.68;;;;;;;12.74;48.45;95047.53;4975586;28;20639;-75
2023/03/21 00:24:04;;;;;;;38.40;13.95;;;;;;;12.61;49.15;95085.53;4993448;28;20038;-75
2023/03/21 00:26:30;;;;;;;27.88;14.25;;;;;;;12.74;49.20;95087.47;4993619;28;20112;-75
2023/03/21 00:28:56;;;;;;;30.83;15.38;;;;;;;12.13;49.26;94997.09;4975700;28;20046;-75
2023/03/21 00:31:21;;;;;;;46.33;18.85;;;;;;;11.75;50.99;95056.63;4975182;28;20382;-75
2023/03/21 00:33:47;;;;;;;48.72;21.35;;;;;;;11.73;51.34;95045.44;4975268;28;20038;-75
2023/03/21 00:36:12;;;;;;;47.40;20.95;;;;;;;11.25;51.91;95024.19;4992972;28;20050;-75
2023/03/21 00:38:38;;;;;;;47.78;20.92;;;;;;;10.97;53.37;95054.16;4992835;28;20042;-75
2023/03/21 00:41:06;;;;;;;40.55;20.05;;;;;;;11.27;53.38;95099.03;4992898;28;20034;-74
2023/03/21 00:43:31;;;;;;;51.75;20.40;;;;;;;11.37;53.14;95090.16;4992794;28;20056;-75
2023/03/21 00:45:58;;;;;;;52.85;21.05;;;;;;;11.23;53.62;95092.66;4992741;28;20034;-75
2023/03/21 00:48:25;;;;;;;51.30;21.92;;;;;;;11.15;52.87;95037.53;4992869;28;20115;-74
2023/03/21 00:50:52;;;;;;;42.03;20.83;;;;;;;11.54;52.36;95082.56;4992706;28;20481;-75
2023/03/21 00:53:19;;;;;;;47.10;19.98;;;;;;;11.10;52.50;94982.66;4992473;28;20033;-76
2023/03/21 00:55:44;;;;;;;44.65;20.52;;;;;;;11.25;51.98;94972.94;4992894;28;20112;-75
2023/03/21 00:58:10;;;;;;;54.60;20.13;;;;;;;12.07;51.44;95083.31;4992296;28;20093;-75
2023/03/21 01:00:36;;;;;;;51.65;21.65;;;;;;;11.31;51.26;94950.56;4991380;28;20044;-74
2023/03/21 01:03:06;;;;;;;42.63;21.52;;;;;;;12.01;51.95;95079.16;4992090;28;20034;-75
2023/03/21 01:06:12;;;;;;;42.22;20.10;;;;;;;12.16;51.53;95078.16;4992899;28;20038;-74
2023/03/21 01:08:28;;;;;;;46.17;20.60;;;;;;;12.12;50.84;95061.22;4988523;28;20047;-75
2023/03/21 01:10:55;;;;;;;40.78;19.77;;;;;;;12.24;51.02;95074.88;4992384;28;20034;-75
2023/03/21 01:13:23;;;;;;;42.83;20.05;;;;;;;12.28;50.68;95073.25;4992319;28;20042;-74
2023/03/21 01:15:53;;;;;;;50.53;21.25;;;;;;;12.12;51.10;95054.03;4971676;28;20026;-74
2023/03/21 01:18:24;;;;;;;54.40;20.00;;;;;;;12.13;51.26;95055.59;4982932;28;20049;-75
2023/03/21 01:20:50;;;;;;;39.78;20.48;;;;;;;12.24;51.20;95064.25;4992081;28;20034;-74
2023/03/21 01:23:16;;;;;;;47.25;19.77;;;;;;;12.12;51.24;95051.38;4991864;28;20034;-74
2023/03/21 01:25:42;;;;;;;44.88;21.15;;;;;;;12.07;51.43;95043.44;4992242;28;20409;-74
2023/03/21 01:28:08;;;;;;;44.13;19.92;;;;;;;12.10;51.28;95058.84;4974909;28;20057;-74
2023/03/21 01:30:34;;;;;;;45.10;19.33;;;;;;;11.73;51.54;95006.38;4957851;28;20224;-74
2023/03/21 01:33:00;;;;;;;46.63;20.42;;;;;;;11.68;51.73;95019.72;4992023;28;20152;-74
2023/03/21 01:35:25;;;;;;;40.05;19.52;;;;;;;11.83;51.77;95071.91;4991668;28;20078;-75
2023/03/21 01:37:50;;;;;;;34.95;18.23;;;;;;;11.85;51.78;95077.75;4974402;28;20034;-74
2023/03/21 01:40:26;;;;;;;49.05;19.25;;;;;;;11.77;51.82;95073.03;4991870;28;20433;-74
2023/03/21 01:42:52;;;;;;;36.65;18.40;;;;;;;11.42;52.15;95034.38;4974066;28;20026;-74
2023/03/21 01:45:55;;;;;;;37.15;19.52;;;;;;;11.45;52.65;95070.97;4970814;28;20043;-74
2023/03/21 01:48:22;;;;;;;40.05;19.83;;;;;;;11.27;52.91;95048.59;4987345;28;20026;-74
2023/03/21 01:50:50;;;;;;;42.63;18.42;;;;;;;11.10;52.72;95013.69;4973619;28;20111;-74
2023/03/21 01:53:18;;;;;;;36.22;19.70;;;;;;;11.23;52.93;95005.06;4991550;28;20374;-74
2023/03/21 01:55:46;;;;;;;34.15;18.95;;;;;;;11.51;52.43;95065.34;4991546;28;20038;-75
2023/03/21 01:58:17;;;;;;;40.85;19.30;;;;;;;11.43;52.28;95046.56;4973719;28;20034;-74
2023/03/21 02:00:44;;;;;;;46.83;19.17;;;;;;;10.97;52.68;95004.53;4991544;28;20034;-74
2023/03/21 02:03:15;;;;;;;37.45;17.20;;;;;;;10.97;52.68;95004.53;4990911;28;20034;-75
2023/03/21 02:05:50;;;;;;;39.55;18.08;;;;;;;11.38;52.76;95058.00;4974020;28;20038;-74
2023/03/21 02:08:15;;;;;;;40.25;17.88;;;;;;;11.27;52.65;95064.50;4991349;28;20516;-75
2023/03/21 02:10:44;;;;;;;36.58;17.15;;;;;;;10.86;52.69;95002.25;4990289;28;20042;-75
2023/03/21 02:13:10;;;;;;;32.08;16.35;;;;;;;11.45;52.45;95058.47;4970254;28;20123;-75
2023/03/21 02:15:44;;;;;;;30.60;17.27;;;;;;;10.93;52.33;94997.41;4983954;28;20469;-75
2023/03/21 02:18:20;;;;;;;34.60;16.63;;;;;;;11.45;52.17;95053.16;4991332;28;20460;-75
2023/03/21 02:20:45;;;;;;;31.35;16.23;;;;;;;11.50;52.00;95055.00;4990756;28;20489;-75
2023/03/21 02:23:31;;;;;;;34.58;16.25;;;;;;;11.58;52.25;95049.06;4990550;28;20042;-74
2023/03/21 02:26:38;;;;;;;37.33;17.35;;;;;;;11.65;52.25;95051.38;4991710;28;20145;-75
2023/03/21 02:29:23;;;;;;;35.72;16.55;;;;;;;11.70;52.13;95059.28;4990272;28;20088;-74
2023/03/21 02:32:01;;;;;;;34.00;17.25;;;;;;;11.08;52.29;94968.88;4991148;28;20556;-75
2023/03/21 02:34:45;;;;;;;35.38;17.15;;;;;;;11.29;52.25;94998.63;4990228;28;20548;-75
2023/03/21 02:37:25;;;;;;;35.00;16.48;;;;;;;11.62;52.21;95055.38;4992095;28;20462;-74
2023/03/21 02:40:21;;;;;;;30.13;15.27;;;;;;;11.63;52.68;95056.97;4973760;28;20046;-75
2023/03/21 02:43:05;;;;;;;32.22;15.95;;;;;;;11.59;52.78;95056.72;4939415;28;20097;-75
2023/03/21 02:45:47;;;;;;;33.83;17.08;;;;;;;11.42;53.07;95059.06;4969736;28;20035;-75
2023/03/21 02:48:21;;;;;;;40.75;16.98;;;;;;;10.53;53.36;94933.03;4988432;28;20037;-75
2023/03/21 02:50:51;;;;;;;44.70;16.63;;;;;;;11.38;53.19;95044.75;4973038;28;20030;-74
2023/03/21 02:53:21;;;;;;;40.30;17.48;;;;;;;11.34;53.80;95046.38;4972761;28;20041;-75
2023/03/21 02:55:48;;;;;;;33.20;16.17;;;;;;;10.95;55.23;95051.78;4991027;28;20039;-75
2023/03/21 02:58:21;;;;;;;33.38;16.65;;;;;;;11.06;54.68;95055.91;4990526;28;20034;-75
2023/03/21 03:00:48;;;;;;;40.47;16.95;;;;;;;10.77;54.03;94991.44;4971961;28;20062;-77
2023/03/21 03:03:15;;;;;;;35.95;16.90;;;;;;;10.88;54.56;95019.47;4989647;28;20117;-77
2023/03/21 03:05:47;;;;;;;35.88;16.73;;;;;;;10.73;54.38;94993.09;4968801;28;20038;-77
2023/03/21 03:08:36;;;;;;;32.60;16.50;;;;;;;11.10;54.75;95051.66;4989779;28;20045;-76
2023/03/21 03:11:15;;;;;;;28.23;16.35;;;;;;;10.70;54.65;95007.69;4973798;28;20137;-77
2023/03/21 03:14:08;;;;;;;34.83;16.23;;;;;;;11.05;54.41;95050.91;4989414;28;20034;-77
2023/03/21 03:17:09;;;;;;;37.50;17.38;;;;;;;10.86;55.02;95048.16;4969156;28;20577;-77
2023/03/21 03:19:47;;;;;;;53.03;18.87;;;;;;;10.69;55.26;95039.78;4982597;28;20056;-77
2023/03/21 03:22:17;;;;;;;46.85;16.67;;;;;;;10.80;55.53;95057.22;4971590;28;20062;-77
2023/03/21 03:24:56;;;;;;;38.35;16.70;;;;;;;10.76;55.45;95054.31;4992084;28;20097;-77
2023/03/21 03:27:28;;;;;;;40.88;16.73;;;;;;;10.64;55.47;95047.78;4993717;28;20105;-77
2023/03/21 03:29:58;;;;;;;39.83;16.75;;;;;;;10.54;55.77;95030.09;4993830;28;20125;-77
2023/03/21 03:32:30;;;;;;;30.98;15.55;;;;;;;10.46;55.52;95028.00;4975515;28;20117;-77
2023/03/21 03:34:57;;;;;;;38.28;15.48;;;;;;;10.45;55.53;95055.63;4993317;28;20062;-77
2023/03/21 03:37:25;;;;;;;43.13;15.75;;;;;;;10.49;55.85;95058.50;4993626;28;20104;-77
2023/03/21 03:39:57;;;;;;;33.22;16.30;;;;;;;10.49;55.69;95053.19;4993425;28;20485;-77
2023/03/21 03:42:27;;;;;;;33.53;16.05;;;;;;;9.92;56.05;94989.09;4972531;28;20031;-77
2023/03/21 03:44:54;;;;;;;29.80;15.57;;;;;;;10.37;55.58;95056.19;4971999;28;20425;-77
2023/03/21 03:47:44;;;;;;;41.60;15.25;;;;;;;10.39;55.82;95056.69;4975773;28;20524;-77
2023/03/21 03:50:24;;;;;;;31.35;15.63;;;;;;;10.42;55.98;95059.59;4992974;28;20113;-77
2023/03/21 03:52:58;;;;;;;29.75;15.48;;;;;;;10.37;56.14;95062.28;4993112;28;20077;-77
2023/03/21 03:55:26;;;;;;;41.50;16.05;;;;;;;10.16;55.70;95025.53;4993150;28;20093;-77
2023/03/21 03:57:53;;;;;;;34.55;15.02;;;;;;;10.35;56.17;95047.72;4993067;28;20041;-77
2023/03/21 04:00:19;;;;;;;40.28;15.20;;;;;;;9.80;55.88;94983.34;4993133;28;20038;-77
2023/03/21 04:02:45;;;;;;;37.45;16.17;;;;;;;10.21;56.32;95046.75;4993143;28;20035;-77
2023/03/21 04:05:12;;;;;;;29.33;15.38;;;;;;;9.83;55.64;94982.81;4992821;28;20034;-77
2023/03/21 04:07:37;;;;;;;30.88;14.32;;;;;;;9.90;56.15;94996.53;4975523;28;20041;-77
2023/03/21 04:10:03;;;;;;;36.85;16.92;;;;;;;10.33;55.81;95060.44;4975206;28;20038;-76
2023/03/21 04:12:29;;;;;;;38.15;15.68;;;;;;;10.30;56.45;95058.34;4992472;28;20042;-76
2023/03/21 04:14:54;;;;;;;46.47;16.75;;;;;;;9.90;56.29;95020.38;4992880;28;20535;-77
2023/03/21 04:17:20;;;;;;;35.17;15.25;;;;;;;10.03;57.02;95035.66;4975457;28;20037;-77
2023/03/21 04:19:45;;;;;;;34.97;16.35;;;;;;;9.57;56.38;94955.66;4975091;28;20409;-77
2023/03/21 04:22:11;;;;;;;34.28;15.25;;;;;;;10.19;56.32;95054.16;4992892;28;20060;-77
2023/03/21 04:24:38;;;;;;;36.88;15.93;;;;;;;9.92;56.36;95022.72;4992373;28;20038;-77
2023/03/21 04:27:05;;;;;;;33.20;15.75;;;;;;;10.14;56.72;95052.31;4992898;28;20038;-77
2023/03/21 04:29:31;;;;;;;37.22;15.93;;;;;;;9.86;56.84;95003.44;4992626;28;20096;-76
2023/03/21 04:31:57;;;;;;;27.83;15.82;;;;;;;10.00;56.93;95038.06;4974656;28;20460;-77
2023/03/21 04:34:26;;;;;;;31.58;14.98;;;;;;;10.01;56.64;95029.84;4991406;28;20061;-77
2023/03/21 04:36:53;;;;;;;31.55;15.13;;;;;;;10.10;57.18;95039.88;4992901;28;20042;-76
2023/03/21 04:39:18;;;;;;;35.35;15.50;;;;;;;9.88;58.21;95049.00;4992475;28;20037;-77
2023/03/21 04:41:45;;;;;;;34.72;16.00;;;;;;;9.81;58.49;95059.09;4992086;28;20467;-76
2023/03/21 04:44:12;;;;;;;29.83;15.70;;;;;;;9.71;57.73;95037.13;4992250;28;20045;-77
2023/03/21 04:46:38;;;;;;;38.15;17.08;;;;;;;9.39;58.01;94973.97;4992412;28;20053;-76
2023/03/21 04:49:05;;;;;;;39.40;16.05;;;;;;;9.45;58.19;94988.81;4991883;28;20038;-77
2023/03/21 04:51:31;;;;;;;30.30;15.50;;;;;;;9.52;58.41;94997.25;4991331;28;20046;-76
2023/03/21 04:53:57;;;;;;;39.55;16.73;;;;;;;9.76;58.00;95039.78;4973861;28;20048;-76
2023/03/21 04:56:31;;;;;;;40.70;16.17;;;;;;;9.70;58.10;95020.44;4955019;28;20117;-76
2023/03/21 04:59:04;;;;;;;32.75;16.38;;;;;;;9.95;58.02;95044.19;4961988;28;20046;-76
2023/03/21 05:01:30;;;;;;;33.05;15.30;;;;;;;10.00;57.63;95057.41;4991365;28;20437;-77
2023/03/21 05:04:04;;;;;;;34.97;15.65;;;;;;;9.85;57.53;95032.84;4972453;28;20143;-77
2023/03/21 05:06:30;;;;;;;35.95;15.35;;;;;;;10.07;57.38;95073.78;4988577;28;20038;-77
2023/03/21 05:09:00;;;;;;;50.78;16.42;;;;;;;10.10;57.92;95076.97;4985786;28;20140;-76
2023/03/21 05:11:29;;;;;;;40.20;16.25;;;;;;;10.17;57.42;95067.69;4971606;28;20262;-76
2023/03/21 05:13:55;;;;;;;43.30;16.95;;;;;;;10.18;57.28;95065.84;4978464;28;20091;-77
2023/03/21 05:16:25;;;;;;;28.00;15.85;;;;;;;9.88;57.36;95019.06;4985928;28;20548;-77
2023/03/21 05:18:53;;;;;;;57.92;18.98;;;;;;;10.16;57.39;95058.13;4983783;28;20042;-77
2023/03/21 05:21:20;;;;;;;54.78;20.35;;;;;;;10.19;57.08;95046.22;4965842;28;20485;-78
2023/03/21 05:23:52;;;;;;;54.83;19.27;;;;;;;10.30;57.48;95068.94;4989899;28;20037;-78
2023/03/21 05:26:19;;;;;;;52.90;18.05;;;;;;;10.02;57.37;95018.19;4961274;28;21431;-78
2023/03/21 05:28:47;;;;;;;56.15;17.40;;;;;;;10.33;57.65;95069.19;4980085;28;20065;-77
2023/03/21 05:31:16;;;;;;;45.17;17.08;;;;;;;10.40;57.42;95068.88;4981781;28;20473;-78
2023/03/21 05:33:43;;;;;;;48.40;17.13;;;;;;;10.06;57.25;95010.50;4975987;28;20070;-77
2023/03/21 05:36:09;;;;;;;45.55;16.13;;;;;;;10.51;56.62;95065.13;4957690;28;20165;-77
2023/03/21 05:38:34;;;;;;;51.13;16.35;;;;;;;10.29;57.27;95030.28;4987482;28;20314;-78
2023/03/21 05:41:00;;;;;;;48.60;16.38;;;;;;;10.50;56.87;95050.28;4978779;28;20081;-78
2023/03/21 05:43:25;;;;;;;46.75;16.98;;;;;;;10.33;56.92;95020.69;4967996;28;20038;-78
2023/03/21 05:45:51;;;;;;;36.08;15.52;;;;;;;10.72;56.17;95071.88;4979647;28;20088;-78
2023/03/21 05:48:16;;;;;;;44.55;17.17;;;;;;;10.71;55.82;95061.53;4980795;28;20382;-78
2023/03/21 05:50:42;;;;;;;39.05;13.90;;;;;;;10.21;55.86;94975.19;4982713;28;20034;-78
2023/03/21 05:53:08;;;;;;;39.20;14.82;;;;;;;10.05;55.18;94942.66;4979759;28;20033;-78
2023/03/21 05:55:33;;;;;;;46.63;14.38;;;;;;;10.74;54.76;95032.59;4979828;28;20035;-79
2023/03/21 05:57:59;;;;;;;34.60;14.90;;;;;;;10.53;54.49;94977.34;4979144;28;20056;-79
2023/03/21 06:00:25;;;;;;;30.65;13.68;;;;;;;10.55;54.63;94964.59;4980036;28;20196;-78
2023/03/21 06:02:50;;;;;;;30.83;13.25;;;;;;;10.64;54.29;94962.91;4974425;28;20164;-78
2023/03/21 06:05:16;;;;;;;33.88;14.45;;;;;;;11.13;54.55;95029.09;4975627;28;20034;-77
2023/03/21 06:07:41;;;;;;;38.08;14.27;;;;;;;11.36;53.99;95046.91;4960896;28;20026;-79
2023/03/21 06:10:07;;;;;;;31.63;13.48;;;;;;;10.91;53.49;94951.81;4963400;28;20042;-79
2023/03/21 06:12:32;;;;;;;883.47;79.18;;;;;;;11.36;52.91;95019.56;4970552;28;20185;-83
2023/03/21 06:15:00;;;;;;;100.38;17.23;;;;;;;11.56;52.71;95041.38;4977905;28;20307;-85
2023/03/21 06:17:26;;;;;;;35.53;13.30;;;;;;;11.71;52.39;95044.94;4980095;28;20528;-82
2023/03/21 06:19:51;;;;;;;35.22;12.50;;;;;;;11.56;52.04;95006.84;4982093;28;20112;-84
2023/03/21 06:22:16;;;;;;;35.13;13.20;;;;;;;10.83;51.60;94879.69;4957854;28;20115;-81
2023/03/21 06:24:42;;;;;;;33.50;14.50;;;;;;;11.50;51.43;94970.00;4975304;28;20054;-80
2023/03/21 06:27:07;;;;;;;33.72;12.18;;;;;;;11.39;50.76;94936.69;4978000;28;20034;-80
2023/03/21 06:29:33;;;;;;;30.23;12.23;;;;;;;11.37;50.38;94944.91;4977631;28;20034;-81
2023/03/21 06:31:58;;;;;;;29.65;12.15;;;;;;;11.98;50.35;95011.41;4979011;28;21430;-80
2023/03/21 06:34:24;;;;;;;39.42;13.48;;;;;;;11.44;50.34;94916.16;4977153;28;20614;-80
2023/03/21 06:36:50;;;;;;;33.40;13.75;;;;;;;11.91;49.74;94959.69;4973016;28;20030;-81
2023/03/21 06:39:16;;;;;;;27.80;11.65;;;;;;;12.03;49.31;94980.53;4979317;28;20516;-81
2023/03/21 06:41:41;;;;;;;56.97;16.83;;;;;;;12.10;49.32;94997.69;4941851;28;20027;-81
2023/03/21 06:44:07;;;;;;;36.53;12.85;;;;;;;12.29;49.62;95035.72;4963032;28;20038;-81
2023/03/21 06:46:32;;;;;;;37.58;15.15;;;;;;;11.89;49.91;94975.13;4976713;28;20527;-81
2023/03/21 06:48:58;;;;;;;34.78;16.08;;;;;;;11.80;50.05;94958.25;4963695;28;20037;-80
2023/03/21 06:51:23;;;;;;;41.72;18.77;;;;;;;11.95;49.66;94976.66;4958087;28;20030;-80
2023/03/21 06:53:49;;;;;;;49.97;19.75;;;;;;;12.41;49.47;95027.31;4976999;28;20437;-80
2023/03/21 06:56:15;;;;;;;46.83;19.58;;;;;;;12.38;50.16;95019.91;4968967;28;20309;-80
2023/03/21 06:58:40;;;;;;;40.95;19.52;;;;;;;11.82;49.66;94937.50;4975934;28;20058;-81
2023/03/21 07:01:06;;;;;;;73.32;24.33;;;;;;;12.17;50.63;94982.19;4967912;28;20478;-81
2023/03/21 07:03:33;;;;;;;67.72;26.95;;;;;;;12.18;51.07;94982.97;4943738;28;20588;-77
2023/03/21 07:06:04;;;;;;;86.88;30.85;;;;;;;12.11;51.87;94969.25;4965128;28;20120;-80
2023/03/21 07:08:29;;;;;;;81.20;31.77;;;;;;;12.62;52.66;95073.81;4960266;28;20845;-78
2023/03/21 07:10:56;;;;;;;82.15;32.10;;;;;;;12.08;52.71;94962.63;4971643;28;20056;-81
2023/03/21 07:13:22;;;;;;;92.68;33.17;;;;;;;12.57;52.91;95017.25;4975140;28;20527;-81
2023/03/21 07:15:47;;;;;;;86.43;31.65;;;;;;;12.79;52.84;95041.38;4960898;28;20421;-80
2023/03/21 07:18:13;;;;;;;69.43;30.55;;;;;;;13.01;52.61;95060.19;4971783;28;20065;-80
2023/03/21 07:20:38;;;;;;;76.25;31.23;;;;;;;12.76;52.39;95033.97;4955540;28;20041;-79
2023/03/21 07:23:04;;;;;;;72.13;30.48;;;;;;;13.08;51.86;95051.81;4973602;28;20043;-79
2023/03/21 07:25:30;;;;;;;71.22;28.42;;;;;;;12.60;51.48;94969.56;4971860;28;20042;-80
2023/03/21 07:27:59;;;;;;;80.78;29.38;;;;;;;12.81;51.03;95007.28;4971153;28;20050;-80
2023/03/21 07:30:25;;;;;;;80.18;27.70;;;;;;;12.25;50.62;94944.31;4970567;28;20583;-79
2023/03/21 07:32:52;;;;;;;79.82;28.65;;;;;;;12.38;50.32;94932.94;4972868;28;20042;-79
2023/03/21 07:35:18;;;;;;;69.82;27.80;;;;;;;12.75;50.86;94981.81;4971480;28;20054;-80
2023/03/21 07:37:43;;;;;;;58.92;26.05;;;;;;;13.35;49.89;95053.78;4949869;28;20065;-78
2023/03/21 07:40:11;;;;;;;66.90;24.60;;;;;;;12.90;49.75;94975.44;4967712;28;20069;-79
2023/03/21 07:42:37;;;;;;;63.53;24.25;;;;;;;12.96;48.94;94984.94;4976706;28;20027;-80
2023/03/21 07:45:03;;;;;;;63.53;24.85;;;;;;;13.14;48.04;94984.91;4972158;28;20610;-80
2023/03/21 07:47:30;;;;;;;55.45;24.60;;;;;;;13.24;48.33;94988.47;4956853;28;20156;-83
2023/03/21 07:49:56;;;;;;;51.75;21.98;;;;;;;13.08;48.13;94974.59;4974291;28;20041;-80
2023/03/21 07:52:22;;;;;;;51.47;21.80;;;;;;;13.37;48.26;94996.47;4967053;28;20034;-83
2023/03/21 07:54:47;;;;;;;47.30;22.88;;;;;;;13.27;48.00;94959.38;4948926;28;20039;-83
2023/03/21 07:57:13;;;;;;;33.78;18.48;;;;;;;13.81;47.28;95041.19;4975008;28;20084;-81
2023/03/21 07:59:38;;;;;;;34.45;17.00;;;;;;;13.70;46.51;95021.16;4967869;28;20391;-80
2023/03/21 08:02:04;;;;;;;51.30;18.95;;;;;;;13.89;46.07;95034.38;4957387;28;20499;-82
2023/03/21 08:04:31;;;;;;;42.47;18.33;;;;;;;13.59;47.03;95035.75;4958822;28;20038;-81
2023/03/21 08:06:56;;;;;;;43.03;18.48;;;;;;;13.46;46.64;94999.22;4975082;28;20617;-82
2023/03/21 08:09:22;;;;;;;36.35;17.27;;;;;;;13.50;46.24;94998.34;4959341;28;20037;-81
2023/03/21 08:11:47;;;;;;;48.13;17.33;;;;;;;13.66;45.84;94993.50;4961420;28;20038;-80
2023/03/21 08:14:14;;;;;;;44.08;16.20;;;;;;;13.85;45.80;95031.50;4974277;28;20032;-80
2023/03/21 08:16:39;;;;;;;41.60;15.73;;;;;;;13.67;45.93;94983.63;4963493;28;20081;-80
2023/03/21 08:19:05;;;;;;;37.63;16.25;;;;;;;13.82;45.16;95021.44;4978148;28;20049;-80
2023/03/21 08:21:30;;;;;;;38.53;15.38;;;;;;;13.82;44.90;94989.44;4962812;28;20026;-80
2023/03/21 08:23:55;;;;;;;46.10;14.93;;;;;;;14.27;44.59;95034.91;4962601;28;20045;-81
2023/03/21 08:26:24;;;;;;;33.95;15.40;;;;;;;14.14;44.24;94995.72;4958992;28;20205;-82
2023/03/21 08:28:49;;;;;;;32.33;14.98;;;;;;;14.00;44.33;94985.09;4961543;28;20037;-82
2023/03/21 08:31:16;;;;;;;37.00;15.95;;;;;;;14.02;44.92;95022.13;4964472;28;20035;-80
2023/03/21 08:33:42;;;;;;;39.75;17.17;;;;;;;14.18;44.89;95042.06;4964093;28;20049;-79
2023/03/21 08:36:08;;;;;;;41.75;16.20;;;;;;;13.85;44.37;94962.22;4974527;28;20058;-80
2023/03/21 08:38:34;;;;;;;32.80;15.50;;;;;;;14.29;43.94;95038.06;4974779;28;20394;-79
2023/03/21 08:41:00;;;;;;;44.15;16.60;;;;;;;14.27;44.48;95021.56;4982054;28;20027;-79
2023/03/21 08:43:27;;;;;;;40.85;15.90;;;;;;;14.38;44.53;95036.31;4963971;28;20030;-80
2023/03/21 08:45:52;;;;;;;35.33;15.77;;;;;;;14.24;44.25;94988.31;4979624;28;20670;-81
2023/03/21 08:48:18;;;;;;;39.67;15.13;;;;;;;14.40;44.24;94999.47;4980283;28;20045;-81
2023/03/21 08:50:44;;;;;;;38.80;16.38;;;;;;;14.60;43.66;95006.19;4961255;28;20065;-79
2023/03/21 08:53:09;;;;;;;36.10;15.13;;;;;;;14.38;42.98;94974.13;4971211;28;20645;-81
2023/03/21 08:55:34;;;;;;;30.67;14.55;;;;;;;14.63;42.74;94985.03;4966539;28;20030;-82
2023/03/21 08:58:01;;;;;;;36.45;15.90;;;;;;;14.54;42.42;94943.38;4960556;28;20049;-81
2023/03/21 09:00:27;;;;;;;34.47;15.25;;;;;;;14.47;42.59;94929.66;4977148;28;20049;-82
2023/03/21 09:02:53;;;;;;;30.20;15.18;;;;;;;14.59;42.39;94943.22;4953329;28;20094;-82
2023/03/21 09:05:19;;;;;;;32.05;15.63;;;;;;;14.85;42.25;94970.09;4959239;28;20034;-81
2023/03/21 09:07:46;;;;;;;34.17;15.30;;;;;;;15.28;41.89;95011.19;4962707;28;20069;-81
2023/03/21 09:10:15;;;;;;;38.72;15.18;;;;;;;14.96;42.58;94990.09;4982907;28;20188;-81
2023/03/21 09:12:41;;;;;;;43.28;16.20;;;;;;;14.43;42.66;94944.69;4962147;28;20030;-81
2023/03/21 09:15:10;;;;;;;36.05;16.45;;;;;;;14.45;42.11;94919.28;4973863;28;20369;-80
2023/03/21 09:17:40;;;;;;;35.78;17.23;;;;;;;15.31;41.60;95021.28;4976208;28;20194;-81
2023/03/21 09:20:10;;;;;;;53.35;15.93;;;;;;;15.22;41.86;94999.06;4958511;28;20505;-81
2023/03/21 09:22:39;;;;;;;39.92;16.17;;;;;;;15.14;41.92;94983.78;4959001;28;20540;-81
2023/03/21 09:25:07;;;;;;;48.35;17.05;;;;;;;15.26;41.88;94972.50;4978753;28;20061;-81
2023/03/21 09:27:32;;;;;;;45.97;16.88;;;;;;;15.22;41.59;94950.19;4976238;28;20677;-81
2023/03/21 09:29:59;;;;;;;37.22;17.40;;;;;;;15.26;41.37;94940.44;4980479;28;20045;-82
2023/03/21 09:32:26;;;;;;;37.22;14.93;;;;;;;15.73;40.72;94990.50;4980330;28;20389;-81
2023/03/21 09:34:51;;;;;;;38.17;14.50;;;;;;;15.58;40.50;94974.88;4957500;28;20046;-81
2023/03/21 09:37:17;;;;;;;37.80;13.75;;;;;;;15.76;40.44;94979.19;4957958;28;20464;-81
2023/03/21 09:39:44;;;;;;;38.92;13.57;;;;;;;15.78;39.79;94970.88;4958460;28;20046;-81
2023/03/21 09:42:16;;;;;;;28.75;13.02;;;;;;;15.65;39.64;94920.97;4955381;28;20049;-83
2023/03/21 09:44:52;;;;;;;34.03;14.20;;;;;;;16.13;39.96;94983.19;4954414;28;20125;-82
2023/03/21 09:47:33;;;;;;;35.47;14.43;;;;;;;16.15;40.16;94964.16;4971689;28;20124;-81
2023/03/21 09:50:03;;;;;;;40.42;14.80;;;;;;;15.38;40.81;94885.34;4953315;28;20038;-81
2023/03/21 09:52:35;;;;;;;48.20;17.33;;;;;;;15.87;40.71;94970.91;4974416;28;20069;-81
2023/03/21 09:55:17;;;;;;;37.63;15.77;;;;;;;15.60;40.48;94934.47;4978368;28;20048;-82
2023/03/21 09:57:46;;;;;;;36.03;15.25;;;;;;;15.97;39.76;94951.88;4976819;28;20106;-81
2023/03/21 10:00:21;;;;;;;44.67;16.10;;;;;;;16.07;39.88;94946.22;4976180;28;20045;-80
2023/03/21 10:02:48;;;;;;;37.47;15.38;;;;;;;15.85;40.34;94916.94;4977160;28;20022;-84
2023/03/21 10:05:25;;;;;;;48.72;16.38;;;;;;;16.21;40.77;94957.56;4972185;28;20041;-81
2023/03/21 10:08:03;;;;;;;32.40;14.00;;;;;;;16.20;40.02;94966.69;4973380;28;20080;-80
2023/03/21 10:10:35;;;;;;;32.72;14.98;;;;;;;15.95;39.68;94917.41;4976115;28;20034;-81
2023/03/21 10:13:00;;;;;;;41.83;15.68;;;;;;;16.37;40.00;94965.91;4956686;28;20903;-81
2023/03/21 10:15:26;;;;;;;31.92;15.50;;;;;;;15.85;40.48;94904.34;4960321;28;20410;-81
2023/03/21 10:18:05;;;;;;;42.53;16.20;;;;;;;16.33;39.89;94914.91;4950403;28;20543;-82
2023/03/21 10:20:37;;;;;;;44.47;16.48;;;;;;;16.53;39.56;94876.00;4975551;28;20435;-81
2023/03/21 10:23:14;;;;;;;39.33;16.42;;;;;;;17.41;38.85;94937.84;4959663;28;20053;-82
2023/03/21 10:25:54;;;;;;;43.95;16.05;;;;;;;17.84;37.54;94910.84;4971052;28;20030;-80
2023/03/21 10:28:24;;;;;;;45.20;17.25;;;;;;;18.07;36.68;94884.50;4956395;28;20133;-81
2023/03/21 10:30:55;;;;;;;43.45;17.75;;;;;;;19.01;35.99;94955.41;4978400;28;20512;-84
2023/03/21 10:33:28;;;;;;;41.45;18.25;;;;;;;19.51;34.85;94941.75;4968496;28;20172;-83
2023/03/21 10:36:00;;;;;;;53.13;18.63;;;;;;;19.77;34.83;94944.09;4948536;28;20137;-79
2023/03/21 10:38:26;;;;;;;41.63;18.10;;;;;;;19.76;33.46;94883.34;4971004;28;20628;-78
2023/03/21 10:40:52;;;;;;;37.17;17.15;;;;;;;19.82;33.18;94900.06;4971828;28;20678;-79
2023/03/21 10:43:24;;;;;;;36.33;17.50;;;;;;;19.61;33.32;94900.94;4974727;28;20042;-80
2023/03/21 10:45:51;;;;;;;41.95;16.27;;;;;;;20.26;33.03;94936.75;4974858;28;20053;-80
2023/03/21 10:48:16;;;;;;;48.53;17.92;;;;;;;19.41;33.61;94831.91;4954220;28;20038;-80
2023/03/21 10:50:47;;;;;;;38.28;17.45;;;;;;;20.19;33.52;94950.03;4953234;28;20065;-78
2023/03/21 10:53:19;;;;;;;31.27;14.85;;;;;;;20.17;32.17;94949.56;4955655;28;20065;-81
2023/03/21 10:55:50;;;;;;;28.92;14.10;;;;;;;19.54;32.51;94830.00;4959649;28;20750;-78
2023/03/21 10:58:23;;;;;;;43.47;14.77;;;;;;;19.93;33.22;94895.75;4970989;28;20038;-80
2023/03/21 11:01:01;;;;;;;25.98;13.40;;;;;;;20.32;31.87;94937.31;4969393;28;20424;-79
2023/03/21 11:03:31;;;;;;;24.38;13.88;;;;;;;19.81;31.78;94907.34;4973481;28;20030;-79
2023/03/21 11:06:25;;;;;;;30.83;14.70;;;;;;;20.20;31.74;94926.56;4971843;28;20057;-79
2023/03/21 11:08:55;;;;;;;31.05;11.18;;;;;;;19.41;30.88;94825.75;4972394;28;20038;-79
2023/03/21 11:11:32;;;;;;;24.90;10.45;;;;;;;19.74;30.80;94879.44;4974471;28;20570;-79
2023/03/21 11:14:06;;;;;;;20.70;9.05;;;;;;;19.50;30.42;94861.41;4976058;28;20038;-78
2023/03/21 11:16:42;;;;;;;23.15;9.85;;;;;;;19.74;31.03;94872.16;4952883;28;20445;-79
2023/03/21 11:19:19;;;;;;;25.58;7.82;;;;;;;19.96;31.92;94895.88;4947724;28;20124;-80
2023/03/21 11:21:45;;;;;;;23.13;9.25;;;;;;;20.18;31.04;94909.97;4965483;28;20158;-78
2023/03/21 11:24:16;;;;;;;16.95;8.32;;;;;;;19.68;30.82;94814.31;4966128;28;20456;-80
2023/03/21 11:26:46;;;;;;;17.67;8.48;;;;;;;20.37;30.59;94900.16;4968124;28;20497;-80